createdAt,value
2017-10-14T00:10:14.512Z,13.40
2017-10-14T00:12:42.067Z,13.40
2017-10-14T00:15:10.442Z,13.40
2017-10-14T00:17:38.001Z,13.30
2017-10-14T00:20:05.567Z,13.30
2017-10-14T00:22:33.916Z,13.30
2017-10-14T00:25:02.256Z,13.30
2017-10-14T00:27:30.759Z,13.30
2017-10-14T00:29:58.313Z,13.30
2017-10-14T00:32:25.909Z,13.30
2017-10-14T00:34:54.231Z,13.30
2017-10-14T00:37:21.818Z,13.30
2017-10-14T00:39:49.793Z,13.20
2017-10-14T00:42:17.341Z,13.20
2017-10-14T00:44:45.007Z,13.20
2017-10-14T00:47:12.563Z,13.10
2017-10-14T00:49:40.157Z,13.00
2017-10-14T00:52:07.715Z,12.90
2017-10-14T00:54:36.437Z,12.90
2017-10-14T00:57:04.019Z,12.50
2017-10-14T00:59:32.339Z,12.90
2017-10-14T01:02:00.354Z,12.90
2017-10-14T01:04:27.933Z,12.90
2017-10-14T01:06:55.557Z,12.90
2017-10-14T01:09:23.115Z,12.90
2017-10-14T01:11:51.422Z,12.90
2017-10-14T01:14:19.009Z,13.10
2017-10-14T01:16:46.569Z,13.00
2017-10-14T01:19:14.195Z,13.10
2017-10-14T01:21:41.745Z,13.00
2017-10-14T01:24:10.442Z,13.00
2017-10-14T01:26:38.039Z,13.00
2017-10-14T01:29:06.274Z,13.00
2017-10-14T01:31:35.374Z,13.00
2017-10-14T01:34:02.922Z,13.00
2017-10-14T01:36:30.513Z,13.00
2017-10-14T01:38:58.074Z,13.00
2017-10-14T01:41:25.629Z,12.90
2017-10-14T01:43:53.606Z,13.00
2017-10-14T01:46:21.162Z,13.00
2017-10-14T01:48:49.167Z,13.10
2017-10-14T01:51:16.725Z,13.10
2017-10-14T01:53:45.044Z,13.10
2017-10-14T01:56:12.688Z,13.10
2017-10-14T01:58:40.647Z,13.10
2017-10-14T02:01:09.030Z,13.20
2017-10-14T02:03:37.346Z,13.20
2017-10-14T02:06:04.943Z,13.20
2017-10-14T02:08:32.530Z,13.30
2017-10-14T02:11:00.906Z,13.20
2017-10-14T02:13:28.518Z,13.30
2017-10-14T02:15:56.096Z,13.20
2017-10-14T02:18:23.717Z,13.30
2017-10-14T02:20:51.314Z,13.30
2017-10-14T02:23:18.874Z,13.30
2017-10-14T02:25:46.471Z,13.40
2017-10-14T02:28:14.358Z,13.40
2017-10-14T02:30:42.675Z,13.50
2017-10-14T02:33:10.664Z,13.60
2017-10-14T02:35:38.302Z,13.70
2017-10-14T02:38:06.309Z,13.70
2017-10-14T02:40:34.275Z,13.60
2017-10-14T02:43:01.824Z,13.50
2017-10-14T02:45:29.428Z,13.60
2017-10-14T02:47:57.749Z,13.50
2017-10-14T02:50:25.419Z,13.50
2017-10-14T02:52:52.975Z,13.40
2017-10-14T02:55:20.536Z,13.40
2017-10-14T02:57:48.546Z,13.50
2017-10-14T03:00:16.139Z,13.50
2017-10-14T03:02:43.765Z,13.40
2017-10-14T03:05:11.730Z,13.50
2017-10-14T03:07:40.119Z,13.50
2017-10-14T03:10:08.849Z,13.50
2017-10-14T03:12:36.416Z,13.50
2017-10-14T03:15:04.010Z,13.50
2017-10-14T03:17:32.356Z,13.40
2017-10-14T03:20:00.728Z,13.50
2017-10-14T03:22:28.377Z,13.50
2017-10-14T03:24:55.933Z,13.50
2017-10-14T03:27:23.543Z,13.40
2017-10-14T03:29:51.102Z,13.50
2017-10-14T03:32:18.658Z,13.40
2017-10-14T03:34:46.272Z,13.40
2017-10-14T03:37:13.835Z,13.40
2017-10-14T03:42:10.361Z,13.50
2017-10-14T03:44:37.921Z,13.50
2017-10-14T03:47:05.515Z,13.50
2017-10-14T03:49:33.477Z,13.50
2017-10-14T03:52:01.126Z,13.40
2017-10-14T03:56:57.577Z,13.40
2017-10-14T03:59:25.215Z,13.40
2017-10-14T04:01:52.779Z,13.50
2017-10-14T04:04:21.902Z,13.60
2017-10-14T04:06:49.490Z,13.60
2017-10-14T04:09:17.449Z,13.60
2017-10-14T04:11:45.805Z,13.70
2017-10-14T04:14:13.355Z,13.70
2017-10-14T04:19:11.026Z,13.60
2017-10-14T04:21:39.342Z,13.70
2017-10-14T04:24:06.940Z,13.70
2017-10-14T04:26:36.240Z,13.70
2017-10-14T04:31:35.058Z,13.60
2017-10-14T04:34:03.026Z,13.60
2017-10-14T04:36:31.422Z,13.70
2017-10-14T04:38:58.971Z,13.60
2017-10-14T04:41:26.769Z,13.50
2017-10-14T04:43:54.348Z,13.30
2017-10-14T04:46:21.927Z,13.20
2017-10-14T04:48:49.925Z,13.00
2017-10-14T04:51:18.238Z,13.00
2017-10-14T04:53:47.368Z,13.10
2017-10-14T04:56:15.683Z,12.90
2017-10-14T04:58:43.267Z,14.60
2017-10-14T05:01:10.861Z,13.00
2017-10-14T05:06:07.381Z,13.00
2017-10-14T05:08:34.934Z,13.10
2017-10-14T05:13:31.416Z,12.90
2017-10-14T05:15:58.975Z,12.90
2017-10-14T05:18:27.286Z,12.90
2017-10-14T05:20:55.242Z,12.90
2017-10-14T05:23:22.797Z,12.70
2017-10-14T05:25:50.396Z,12.70
2017-10-14T05:28:19.452Z,12.70
2017-10-14T05:33:15.953Z,12.70
2017-10-14T05:35:43.598Z,12.70
2017-10-14T05:38:11.198Z,12.80
2017-10-14T05:40:38.775Z,12.90
2017-10-14T05:43:06.356Z,12.80
2017-10-14T05:45:34.691Z,12.90
2017-10-14T05:48:02.289Z,12.90
2017-10-14T05:50:31.370Z,12.90
2017-10-14T05:52:58.931Z,12.90
2017-10-14T05:55:26.525Z,12.90
2017-10-14T05:57:54.178Z,12.90
2017-10-14T06:00:21.788Z,13.00
2017-10-14T06:02:49.649Z,13.00
2017-10-14T06:05:17.222Z,12.90
2017-10-14T06:07:45.336Z,13.00
2017-10-14T06:10:13.653Z,13.20
2017-10-14T06:15:10.158Z,13.20
2017-10-14T06:17:38.495Z,13.30
2017-10-14T06:22:36.482Z,13.30
2017-10-14T06:25:04.083Z,13.30
2017-10-14T06:27:31.643Z,13.40
2017-10-14T06:30:00.327Z,13.40
2017-10-14T06:32:27.923Z,13.40
2017-10-14T06:34:55.874Z,13.40
2017-10-14T06:37:23.478Z,13.50
2017-10-14T06:39:51.031Z,13.40
2017-10-14T06:42:18.592Z,13.40
2017-10-14T06:44:46.187Z,13.50
2017-10-14T06:47:14.150Z,13.40
2017-10-14T06:49:41.772Z,13.50
2017-10-14T06:52:09.339Z,13.40
2017-10-14T06:54:36.895Z,13.30
2017-10-14T06:57:04.487Z,13.10
2017-10-14T06:59:32.760Z,13.10
2017-10-14T07:02:01.142Z,12.90
2017-10-14T07:04:28.694Z,13.00
2017-10-14T07:06:56.253Z,12.90
2017-10-14T07:09:24.226Z,13.10
2017-10-14T07:11:51.781Z,13.10
2017-10-14T07:14:20.531Z,13.20
2017-10-14T07:16:48.093Z,13.40
2017-10-14T07:19:15.648Z,13.50
2017-10-14T07:21:43.237Z,13.50
2017-10-14T07:24:11.183Z,13.50
2017-10-14T07:26:38.770Z,13.40
2017-10-14T07:29:06.332Z,13.40
2017-10-14T07:31:35.687Z,13.40
2017-10-14T07:34:04.785Z,13.50
2017-10-14T07:36:32.348Z,13.60
2017-10-14T07:39:00.355Z,13.60
2017-10-14T07:41:27.914Z,13.50
2017-10-14T07:43:55.874Z,13.50
2017-10-14T07:46:23.474Z,13.40
2017-10-14T07:48:51.791Z,13.50
2017-10-14T07:51:19.411Z,13.60
2017-10-14T07:53:47.708Z,13.50
2017-10-14T07:56:15.762Z,13.40
2017-10-14T08:01:18.887Z,13.50
2017-10-14T08:03:46.442Z,13.60
2017-10-14T08:06:14.039Z,13.60
2017-10-14T08:08:42.071Z,13.70
2017-10-14T08:11:10.391Z,13.70
2017-10-14T08:13:38.002Z,13.80
2017-10-14T08:16:05.570Z,13.90
2017-10-14T08:18:33.123Z,14.00
2017-10-14T08:21:01.495Z,13.90
2017-10-14T08:23:29.442Z,13.80
2017-10-14T08:25:57.820Z,13.70
2017-10-14T08:28:25.401Z,13.60
2017-10-14T08:30:52.963Z,13.50
2017-10-14T08:33:21.687Z,13.60
2017-10-14T08:35:49.243Z,13.80
2017-10-14T08:38:16.863Z,13.80
2017-10-14T08:40:45.181Z,13.70
2017-10-14T08:43:13.125Z,13.70
2017-10-14T08:45:41.153Z,13.80
2017-10-14T08:48:08.711Z,13.80
2017-10-14T08:53:06.834Z,14.20
2017-10-14T08:55:35.175Z,14.30
2017-10-14T09:00:32.053Z,14.30
2017-10-14T09:02:59.711Z,14.30
2017-10-14T09:12:55.557Z,14.80
2017-10-14T09:15:23.951Z,14.80
2017-10-14T09:25:18.325Z,15.00
2017-10-14T09:27:46.697Z,14.90
2017-10-14T09:30:14.258Z,14.90
2017-10-14T09:32:41.837Z,15.00
2017-10-14T09:35:09.438Z,15.20
2017-10-14T09:37:37.002Z,15.30
2017-10-14T09:40:05.381Z,15.30
2017-10-14T09:45:01.849Z,15.00
2017-10-14T09:47:30.219Z,15.00
2017-10-14T09:52:27.649Z,14.80
2017-10-14T09:54:55.333Z,14.90
2017-10-14T09:57:24.988Z,15.20
2017-10-14T09:59:53.743Z,15.30
2017-10-14T10:07:19.247Z,15.30
2017-10-14T10:12:16.144Z,15.20
2017-10-14T10:19:43.208Z,15.40
2017-10-14T10:24:40.918Z,15.80
2017-10-14T10:27:09.645Z,16.10
2017-10-14T10:29:37.648Z,16.50
2017-10-14T10:32:06.500Z,17.20
2017-10-14T10:34:34.472Z,17.50
2017-10-14T10:37:02.067Z,17.50
2017-10-14T10:39:29.653Z,17.40
2017-10-14T10:41:57.977Z,17.30
2017-10-14T10:44:25.634Z,17.30
2017-10-14T10:46:54.018Z,17.50
2017-10-14T10:49:22.689Z,17.50
2017-10-14T10:51:50.678Z,17.60
2017-10-14T10:54:19.039Z,18.10
2017-10-14T10:56:47.408Z,18.50
2017-10-14T10:59:37.551Z,18.90
2017-10-14T11:02:05.169Z,19.50
2017-10-14T11:04:33.533Z,19.80
2017-10-14T11:07:01.161Z,19.70
2017-10-14T11:09:29.500Z,19.80
2017-10-14T11:11:57.848Z,19.60
2017-10-14T11:14:26.457Z,19.50
2017-10-14T11:16:54.804Z,20.00
2017-10-14T11:19:22.399Z,20.50
2017-10-14T11:21:51.106Z,20.60
2017-10-14T11:24:19.541Z,20.80
2017-10-14T11:26:47.885Z,20.80
2017-10-14T11:29:23.217Z,21.00
2017-10-14T11:31:51.585Z,21.20
2017-10-14T11:34:19.570Z,21.30
2017-10-14T11:36:47.588Z,21.20
2017-10-14T11:39:15.200Z,21.30
2017-10-14T11:41:42.831Z,21.30
2017-10-14T11:44:10.812Z,21.20
2017-10-14T11:46:38.836Z,21.40
2017-10-14T11:49:07.195Z,21.40
2017-10-14T11:51:34.790Z,21.80
2017-10-14T11:54:03.130Z,21.80
2017-10-14T11:56:31.442Z,21.70
2017-10-14T11:58:59.030Z,21.80
2017-10-14T12:01:27.361Z,22.10
2017-10-14T12:03:55.715Z,21.90
2017-10-14T12:06:24.051Z,22.10
2017-10-14T12:08:53.190Z,22.40
2017-10-14T12:11:20.847Z,22.20
2017-10-14T12:13:49.201Z,22.30
2017-10-14T12:16:17.623Z,22.20
2017-10-14T12:18:45.963Z,22.20
2017-10-14T12:21:14.335Z,22.40
2017-10-14T12:23:41.938Z,22.60
2017-10-14T12:26:10.262Z,22.70
2017-10-14T12:28:59.273Z,22.90
2017-10-14T12:31:45.244Z,23.20
2017-10-14T12:36:55.564Z,22.10
2017-10-14T12:39:23.730Z,21.90
2017-10-14T12:41:51.395Z,22.30
2017-10-14T12:44:19.058Z,22.50
2017-10-14T12:46:47.227Z,22.70
2017-10-14T12:49:14.989Z,22.50
2017-10-14T12:51:43.860Z,22.70
2017-10-14T12:54:12.493Z,23.00
2017-10-14T12:56:40.194Z,22.90
2017-10-14T12:59:07.754Z,23.20
2017-10-14T13:01:35.366Z,23.30
2017-10-14T13:04:02.923Z,23.20
2017-10-14T13:06:30.470Z,23.20
2017-10-14T13:08:58.073Z,23.50
2017-10-14T13:11:25.631Z,23.20
2017-10-14T13:13:53.520Z,23.10
2017-10-14T13:16:21.090Z,23.40
2017-10-14T13:18:48.673Z,23.60
2017-10-14T13:21:16.232Z,24.10
2017-10-14T13:23:43.863Z,24.50
2017-10-14T13:26:11.455Z,24.90
2017-10-14T13:28:39.052Z,25.00
2017-10-14T13:31:06.608Z,24.70
2017-10-14T13:33:34.166Z,24.80
2017-10-14T13:36:01.745Z,25.00
2017-10-14T13:38:29.308Z,24.90
2017-10-14T13:40:56.903Z,24.90
2017-10-14T13:43:24.527Z,25.50
2017-10-14T13:45:52.127Z,25.60
2017-10-14T13:48:19.697Z,25.70
2017-10-14T13:50:47.334Z,25.80
2017-10-14T13:53:14.910Z,25.90
2017-10-14T13:55:42.476Z,25.90
2017-10-14T13:58:10.075Z,25.40
2017-10-14T14:00:37.643Z,25.60
2017-10-14T14:03:05.257Z,25.60
2017-10-14T14:05:32.850Z,24.70
2017-10-14T14:08:00.451Z,25.80
2017-10-14T14:10:28.016Z,25.70
2017-10-14T14:12:55.611Z,26.20
2017-10-14T14:15:23.185Z,26.10
2017-10-14T14:17:51.096Z,26.10
2017-10-14T14:20:19.518Z,26.00
2017-10-14T14:22:47.131Z,26.00
2017-10-14T14:25:14.733Z,26.00
2017-10-14T14:27:42.291Z,26.10
2017-10-14T14:30:09.874Z,26.40
2017-10-14T14:32:37.436Z,26.60
2017-10-14T14:35:05.021Z,26.60
2017-10-14T14:37:32.582Z,26.80
2017-10-14T14:40:00.185Z,26.90
2017-10-14T14:42:27.745Z,27.00
2017-10-14T14:44:55.423Z,27.00
2017-10-14T14:47:23.268Z,27.20
2017-10-14T14:49:50.828Z,27.30
2017-10-14T14:52:18.475Z,27.40
2017-10-14T14:54:46.061Z,27.50
2017-10-14T14:57:13.687Z,27.50
2017-10-14T14:59:41.265Z,27.60
2017-10-14T15:02:08.949Z,27.60
2017-10-14T15:04:36.525Z,27.60
2017-10-14T15:07:04.122Z,27.70
2017-10-14T15:09:32.521Z,27.60
2017-10-14T15:12:00.081Z,27.60
2017-10-14T15:14:27.679Z,27.60
2017-10-14T15:16:56.018Z,27.50
2017-10-14T15:19:23.641Z,27.30
2017-10-14T15:21:51.971Z,26.90
2017-10-14T15:24:19.567Z,26.60
2017-10-14T15:26:47.951Z,26.50
2017-10-14T15:32:06.657Z,26.30
2017-10-14T15:34:34.656Z,26.20
2017-10-14T15:37:02.286Z,26.20
2017-10-14T15:39:29.873Z,25.90
2017-10-14T15:41:57.753Z,25.50
2017-10-14T15:44:25.338Z,25.10
2017-10-14T15:46:52.947Z,24.70
2017-10-14T15:49:20.895Z,24.50
2017-10-14T15:51:48.475Z,24.40
2017-10-14T15:54:16.446Z,24.20
2017-10-14T15:56:44.092Z,24.10
2017-10-14T15:59:11.657Z,23.90
2017-10-14T16:01:39.259Z,23.70
2017-10-14T16:04:07.575Z,23.60
2017-10-14T16:06:35.133Z,23.50
2017-10-14T16:09:02.753Z,23.40
2017-10-14T16:11:30.322Z,23.40
2017-10-14T17:38:55.295Z,19.10
2017-10-14T17:41:22.970Z,19.00
2017-10-14T17:43:50.518Z,18.90
2017-10-14T17:46:18.159Z,18.90
2017-10-14T17:48:45.712Z,18.80
2017-10-14T17:53:43.406Z,18.60
2017-10-14T17:56:11.030Z,18.50
2017-10-14T17:58:39.324Z,18.40
2017-10-14T18:01:07.674Z,18.30
2017-10-14T18:03:35.259Z,18.30
2017-10-14T18:06:02.820Z,18.20
2017-10-14T18:08:30.376Z,18.10
2017-10-14T18:10:58.000Z,18.10
2017-10-14T18:13:25.978Z,18.00
2017-10-14T18:15:53.787Z,17.90
2017-10-14T18:18:22.373Z,17.80
2017-10-14T18:20:50.087Z,17.70
2017-10-14T18:23:17.997Z,17.70
2017-10-14T18:25:45.613Z,17.60
2017-10-14T18:28:13.216Z,17.80
2017-10-14T18:30:40.823Z,17.60
2017-10-14T18:33:08.469Z,17.50
2017-10-14T18:35:36.046Z,17.40
2017-10-14T18:38:03.617Z,17.40
2017-10-14T18:43:22.019Z,17.30
2017-10-14T18:45:50.390Z,17.30
2017-10-14T18:48:18.720Z,17.20
2017-10-14T18:50:47.096Z,17.10
2017-10-14T18:55:43.853Z,17.00
2017-10-14T18:58:11.820Z,17.00
2017-10-14T19:00:39.783Z,16.90
2017-10-14T19:03:08.925Z,16.90
2017-10-14T19:05:36.563Z,16.80
2017-10-14T19:08:05.304Z,16.70
2017-10-14T19:10:32.882Z,16.70
2017-10-14T19:13:00.498Z,16.70
2017-10-14T19:17:58.329Z,16.60
2017-10-14T19:22:57.087Z,16.40
2017-10-14T19:25:25.453Z,16.40
2017-10-14T19:30:23.421Z,16.30
2017-10-14T19:32:51.407Z,16.30
2017-10-14T19:35:20.591Z,16.20
2017-10-14T19:40:35.218Z,16.20
2017-10-14T19:45:32.873Z,16.10
2017-10-14T19:52:59.446Z,16.10
2017-10-14T19:55:27.078Z,16.00
2017-10-14T19:57:54.640Z,15.90
2017-10-14T20:00:22.334Z,15.90
2017-10-14T20:05:18.934Z,15.90
2017-10-14T20:07:47.296Z,15.90
2017-10-14T20:12:44.987Z,15.80
2017-10-14T20:15:13.317Z,15.80
2017-10-14T20:17:40.938Z,15.70
2017-10-14T20:27:37.745Z,15.50
2017-10-14T20:30:05.414Z,15.40
2017-10-14T20:32:33.766Z,15.40
2017-10-14T20:37:30.296Z,15.30
2017-10-14T20:39:58.691Z,15.20
2017-10-14T20:42:27.019Z,15.20
2017-10-14T20:44:55.360Z,15.20
2017-10-14T20:47:22.970Z,15.20
2017-10-14T20:49:50.546Z,15.10
2017-10-14T20:52:19.026Z,15.10
2017-10-14T20:54:48.632Z,15.10
2017-10-14T20:57:16.724Z,15.00
2017-10-14T20:59:45.418Z,15.00
2017-10-14T21:02:13.067Z,14.90
2017-10-14T21:04:41.424Z,14.90
2017-10-14T21:07:08.983Z,14.80
2017-10-14T21:09:36.574Z,14.80
2017-10-14T21:12:04.126Z,14.80
2017-10-14T21:17:01.027Z,14.80
2017-10-14T21:19:28.650Z,14.70
2017-10-14T21:21:56.219Z,14.70
2017-10-14T21:24:23.803Z,14.70
2017-10-14T21:29:20.693Z,14.70
2017-10-14T21:31:49.071Z,14.60
2017-10-14T21:39:14.510Z,14.60
2017-10-14T21:41:42.705Z,14.50
2017-10-14T21:44:11.796Z,14.50
2017-10-14T21:46:40.115Z,14.50
2017-10-14T21:51:37.794Z,14.30
2017-10-14T21:54:06.142Z,14.30
2017-10-14T21:56:35.226Z,14.20
2017-10-14T21:59:02.822Z,14.30
2017-10-14T22:01:30.388Z,14.30
2017-10-14T22:03:58.370Z,14.30
2017-10-14T22:08:55.306Z,14.30
2017-10-14T22:11:23.832Z,14.30
2017-10-14T22:13:51.854Z,14.40
2017-10-14T22:16:20.172Z,14.40
2017-10-14T22:18:48.876Z,14.40
2017-10-14T22:23:46.874Z,14.10
2017-10-14T22:26:14.562Z,14.10
2017-10-14T22:31:12.514Z,14.10
2017-10-14T22:33:40.882Z,14.10
2017-10-14T22:36:09.203Z,14.00
2017-10-14T22:38:37.683Z,14.10
2017-10-14T22:41:05.239Z,14.00
2017-10-14T22:46:06.645Z,14.00
2017-10-14T22:48:34.214Z,13.90
2017-10-14T22:51:01.814Z,13.90
2017-10-14T22:53:29.379Z,13.80
2017-10-14T22:55:56.991Z,13.80
2017-10-14T22:58:24.601Z,13.80
2017-10-14T23:00:52.193Z,15.90
2017-10-14T23:03:19.975Z,13.70
2017-10-14T23:05:48.289Z,13.70
2017-10-14T23:08:15.893Z,13.70
2017-10-14T23:10:43.449Z,13.70
2017-10-14T23:13:11.901Z,13.60
2017-10-14T23:15:39.449Z,13.60
2017-10-14T23:18:07.046Z,13.60
2017-10-14T23:20:34.623Z,13.50
2017-10-14T23:23:02.227Z,13.60
2017-10-14T23:25:29.790Z,13.50
2017-10-14T23:27:57.384Z,13.50
2017-10-14T23:30:24.954Z,13.40
2017-10-14T23:32:53.278Z,13.30
2017-10-14T23:35:21.304Z,13.30
2017-10-14T23:37:48.869Z,13.30
2017-10-14T23:40:16.502Z,13.20
2017-10-14T23:42:44.104Z,13.20
2017-10-14T23:45:11.682Z,13.20
2017-10-14T23:47:40.040Z,13.20
2017-10-14T23:50:07.614Z,13.10
2017-10-14T23:52:35.216Z,13.10
2017-10-14T23:55:02.777Z,13.00
2017-10-14T23:57:30.333Z,13.00
2017-10-14T23:59:57.922Z,12.90
